createdAt,value
2019-01-06T00:00:17.804Z,22.30
2019-01-06T00:02:50.864Z,19.63
2019-01-06T00:05:23.802Z,19.53
2019-01-06T00:07:59.952Z,17.07
2019-01-06T00:10:33.167Z,17.40
2019-01-06T00:13:03.391Z,22.15
2019-01-06T00:15:33.621Z,16.47
2019-01-06T00:18:09.659Z,14.33
2019-01-06T00:20:58.235Z,13.47
2019-01-06T00:23:43.645Z,13.43
2019-01-06T00:26:23.028Z,13.53
2019-01-06T00:28:53.247Z,12.07
2019-01-06T00:31:30.440Z,13.00
2019-01-06T00:34:16.836Z,12.23
2019-01-06T00:36:47.061Z,12.33
2019-01-06T00:39:33.784Z,11.50
2019-01-06T00:42:06.705Z,15.63
2019-01-06T00:44:39.608Z,11.77
2019-01-06T00:47:18.943Z,10.90
2019-01-06T00:50:01.358Z,10.43
2019-01-06T00:52:40.728Z,9.90
2019-01-06T00:55:16.715Z,10.77
2019-01-06T00:57:47.008Z,11.80
2019-01-06T01:00:19.927Z,11.00
2019-01-06T01:03:03.166Z,15.00
2019-01-06T01:05:45.303Z,10.87
2019-01-06T01:08:18.048Z,10.17
2019-01-06T01:11:04.670Z,9.63
2019-01-06T01:13:40.850Z,9.27
2019-01-06T01:16:20.067Z,10.07
2019-01-06T01:18:52.846Z,9.50
2019-01-06T01:21:28.989Z,8.80
2019-01-06T01:24:08.134Z,9.07
2019-01-06T01:26:56.896Z,8.70
2019-01-06T01:29:30.102Z,8.30
2019-01-06T01:32:16.758Z,8.00
2019-01-06T01:34:55.791Z,9.77
2019-01-06T01:37:28.954Z,10.47
2019-01-06T01:39:59.176Z,10.07
2019-01-06T01:42:35.480Z,10.93
2019-01-06T01:45:09.532Z,13.03
2019-01-06T01:47:48.696Z,10.10
2019-01-06T01:50:24.663Z,11.33
2019-01-06T01:52:54.925Z,11.07
2019-01-06T01:55:41.609Z,10.50
2019-01-06T01:58:20.556Z,9.27
2019-01-06T02:00:50.826Z,10.85
2019-01-06T02:03:39.126Z,8.90
2019-01-06T02:06:27.398Z,8.77
2019-01-06T02:08:57.620Z,8.77
2019-01-06T02:11:44.799Z,6.43
2019-01-06T02:14:23.902Z,8.43
2019-01-06T02:17:06.624Z,8.83
2019-01-06T02:19:39.801Z,8.30
2019-01-06T02:22:10.024Z,8.93
2019-01-06T02:24:56.514Z,8.97
2019-01-06T02:27:26.713Z,8.20
2019-01-06T02:29:56.960Z,9.97
2019-01-06T02:32:27.180Z,8.30
2019-01-06T02:34:57.397Z,9.07
2019-01-06T02:37:27.614Z,8.70
2019-01-06T02:40:14.391Z,8.77
2019-01-06T02:42:59.837Z,9.13
2019-01-06T02:45:46.165Z,9.60
2019-01-06T02:48:19.126Z,10.60
2019-01-06T02:50:49.336Z,9.73
2019-01-06T02:53:34.693Z,10.67
2019-01-06T02:56:16.846Z,10.33
2019-01-06T02:58:49.910Z,14.90
2019-01-06T03:01:32.085Z,12.00
2019-01-06T03:04:05.245Z,10.20
2019-01-06T03:06:47.728Z,9.33
2019-01-06T03:09:26.968Z,10.43
2019-01-06T03:12:10.746Z,10.23
2019-01-06T03:14:50.354Z,11.00
2019-01-06T03:17:23.548Z,10.53
2019-01-06T03:19:53.794Z,10.30
2019-01-06T03:22:24.053Z,10.17
2019-01-06T03:24:57.271Z,11.33
2019-01-06T03:27:34.604Z,10.50
2019-01-06T03:30:14.180Z,10.17
2019-01-06T03:32:44.433Z,10.33
2019-01-06T03:35:31.175Z,10.10
2019-01-06T03:38:01.388Z,9.83
2019-01-06T03:40:48.098Z,9.83
2019-01-06T03:43:33.148Z,10.43
2019-01-06T03:46:15.609Z,10.27
2019-01-06T03:48:48.541Z,9.67
2019-01-06T03:51:34.969Z,10.13
2019-01-06T03:54:21.621Z,9.87
2019-01-06T03:56:51.879Z,12.88
2019-01-06T03:59:37.381Z,10.47
2019-01-06T04:02:22.444Z,10.17
2019-01-06T04:05:08.811Z,10.27
2019-01-06T04:07:55.109Z,9.40
2019-01-06T04:10:41.689Z,9.13
2019-01-06T04:13:27.913Z,10.30
2019-01-06T04:16:16.307Z,10.00
2019-01-06T04:18:52.218Z,10.40
2019-01-06T04:21:22.444Z,9.37
2019-01-06T04:24:08.930Z,8.70
2019-01-06T04:26:55.269Z,9.57
2019-01-06T04:29:31.317Z,9.37
2019-01-06T04:32:10.781Z,8.93
2019-01-06T04:34:46.949Z,8.80
2019-01-06T04:37:17.206Z,9.93
2019-01-06T04:39:56.308Z,9.97
2019-01-06T04:42:45.101Z,9.27
2019-01-06T04:45:31.372Z,11.17
2019-01-06T04:48:04.085Z,8.87
2019-01-06T04:50:42.911Z,11.33
2019-01-06T04:53:13.144Z,10.90
2019-01-06T04:55:55.338Z,10.83
2019-01-06T04:58:37.387Z,15.25
2019-01-06T05:01:18.068Z,12.27
2019-01-06T05:03:48.293Z,11.23
2019-01-06T05:06:32.294Z,10.87
2019-01-06T05:09:18.769Z,10.93
2019-01-06T05:11:49.018Z,9.90
2019-01-06T05:14:21.990Z,10.23
2019-01-06T05:16:55.155Z,11.13
2019-01-06T05:19:32.046Z,11.10
2019-01-06T05:22:02.284Z,11.53
2019-01-06T05:24:50.643Z,12.03
2019-01-06T05:27:23.520Z,11.63
2019-01-06T05:30:10.279Z,11.87
2019-01-06T05:32:46.643Z,12.00
2019-01-06T05:35:33.614Z,12.77
2019-01-06T05:38:09.548Z,12.57
2019-01-06T05:40:42.510Z,9.97
2019-01-06T05:43:18.812Z,10.53
2019-01-06T05:45:51.782Z,10.77
2019-01-06T05:48:24.807Z,10.30
2019-01-06T05:51:01.355Z,11.83
2019-01-06T05:53:47.596Z,11.30
2019-01-06T05:56:23.599Z,12.03
2019-01-06T05:59:12.106Z,13.33
2019-01-06T06:01:54.452Z,12.23
2019-01-06T06:04:27.407Z,13.37
2019-01-06T06:07:00.444Z,12.40
2019-01-06T06:09:30.692Z,13.27
2019-01-06T06:12:10.272Z,12.87
2019-01-06T06:14:43.303Z,14.43
2019-01-06T06:17:19.619Z,12.57
2019-01-06T06:19:49.852Z,13.00
2019-01-06T06:22:22.836Z,11.37
2019-01-06T06:25:09.337Z,12.90
2019-01-06T06:27:45.494Z,9.90
2019-01-06T06:30:18.657Z,11.43
2019-01-06T06:32:54.757Z,11.67
2019-01-06T06:35:40.020Z,11.03
2019-01-06T06:38:15.981Z,10.80
2019-01-06T06:40:46.200Z,11.03
2019-01-06T06:43:20.492Z,11.43
2019-01-06T06:45:53.537Z,11.80
2019-01-06T06:48:23.787Z,11.13
2019-01-06T06:50:56.988Z,11.33
2019-01-06T06:53:27.248Z,13.57
2019-01-06T06:56:13.622Z,10.30
2019-01-06T06:58:46.634Z,11.57
2019-01-06T07:01:31.946Z,13.05
2019-01-06T07:04:11.470Z,13.67
2019-01-06T07:06:47.973Z,10.77
2019-01-06T07:09:34.821Z,11.43
2019-01-06T07:12:11.001Z,9.80
2019-01-06T07:14:46.916Z,10.37
2019-01-06T07:18:04.832Z,10.20
2019-01-06T07:20:51.234Z,8.83
2019-01-06T07:23:21.472Z,8.40
2019-01-06T07:25:54.446Z,9.07
2019-01-06T07:28:40.809Z,8.03
2019-01-06T07:31:26.385Z,9.20
2019-01-06T07:33:56.644Z,8.80
2019-01-06T07:36:43.822Z,8.87
2019-01-06T07:39:30.612Z,9.10
2019-01-06T07:42:09.530Z,9.57
2019-01-06T07:44:42.706Z,9.30
2019-01-06T07:47:29.184Z,8.20
2019-01-06T07:50:11.227Z,9.73
2019-01-06T07:52:44.487Z,9.40
2019-01-06T07:55:14.680Z,9.17
2019-01-06T07:58:10.950Z,9.67
2019-01-06T08:00:57.227Z,9.87
2019-01-06T08:03:30.322Z,9.23
2019-01-06T08:06:16.769Z,9.70
2019-01-06T08:08:49.778Z,9.93
2019-01-06T08:11:28.608Z,10.80
2019-01-06T08:14:13.818Z,10.37
2019-01-06T08:16:50.168Z,9.53
2019-01-06T08:19:38.310Z,10.50
2019-01-06T08:22:14.625Z,11.40
2019-01-06T08:24:53.967Z,11.57
2019-01-06T08:27:26.635Z,11.03
2019-01-06T08:30:02.466Z,11.80
2019-01-06T08:32:32.712Z,12.47
2019-01-06T08:35:10.899Z,11.70
2019-01-06T08:37:47.043Z,12.00
2019-01-06T08:40:32.394Z,13.03
2019-01-06T08:43:08.467Z,14.43
2019-01-06T08:45:56.841Z,13.93
2019-01-06T08:48:39.103Z,13.87
2019-01-06T08:51:10.892Z,13.50
2019-01-06T08:53:44.076Z,13.60
2019-01-06T08:56:23.209Z,14.43
2019-01-06T08:58:59.320Z,15.13
2019-01-06T09:01:35.727Z,17.00
2019-01-06T09:04:17.914Z,15.73
2019-01-06T09:07:03.483Z,15.43
2019-01-06T09:09:50.167Z,16.30
2019-01-06T09:12:20.427Z,16.23
2019-01-06T09:14:56.706Z,16.33
2019-01-06T09:17:43.102Z,16.30
2019-01-06T09:20:16.300Z,15.37
2019-01-06T09:23:02.965Z,15.20
2019-01-06T09:25:40.958Z,16.13
2019-01-06T09:28:24.021Z,15.63
2019-01-06T09:31:09.244Z,15.57
2019-01-06T09:33:42.058Z,15.70
2019-01-06T09:36:15.306Z,15.20
2019-01-06T09:38:48.341Z,14.70
2019-01-06T09:41:34.835Z,16.00
2019-01-06T09:44:21.166Z,14.77
2019-01-06T09:47:00.512Z,15.80
2019-01-06T09:49:33.417Z,16.40
2019-01-06T09:52:12.773Z,15.63
2019-01-06T09:54:51.929Z,15.80
2019-01-06T09:57:22.173Z,22.13
2019-01-06T10:00:04.294Z,19.17
2019-01-06T10:02:34.555Z,19.43
2019-01-06T10:05:10.460Z,17.47
2019-01-06T10:07:43.612Z,15.60
2019-01-06T10:10:22.820Z,24.80
2019-01-06T10:13:05.058Z,18.30
2019-01-06T10:15:50.396Z,19.60
2019-01-06T10:18:36.849Z,18.97
2019-01-06T10:21:07.069Z,18.20
2019-01-06T10:23:43.075Z,18.83
2019-01-06T10:26:25.064Z,18.20
2019-01-06T10:29:13.301Z,19.30
2019-01-06T10:32:01.817Z,17.40
2019-01-06T10:34:34.821Z,17.30
2019-01-06T10:37:05.070Z,18.33
2019-01-06T10:39:51.553Z,18.57
2019-01-06T10:42:24.768Z,20.60
2019-01-06T10:45:04.213Z,19.40
2019-01-06T10:47:50.812Z,18.77
2019-01-06T10:50:21.151Z,19.33
2019-01-06T10:52:54.287Z,18.20
2019-01-06T10:55:42.162Z,19.13
2019-01-06T10:58:30.563Z,17.90
2019-01-06T11:01:12.568Z,17.63
2019-01-06T11:03:42.800Z,17.98
2019-01-06T11:06:13.065Z,18.13
2019-01-06T11:08:49.061Z,17.80
2019-01-06T11:11:28.480Z,17.10
2019-01-06T11:14:07.873Z,16.83
2019-01-06T11:16:54.160Z,17.67
2019-01-06T11:19:30.124Z,17.33
2019-01-06T11:22:00.344Z,18.73
2019-01-06T11:24:30.588Z,17.50
2019-01-06T11:27:17.180Z,17.40
2019-01-06T11:29:47.407Z,16.80
2019-01-06T11:32:20.694Z,16.63
2019-01-06T11:34:59.952Z,15.50
2019-01-06T11:37:30.169Z,18.23
2019-01-06T11:40:16.438Z,18.87
2019-01-06T11:42:46.931Z,17.57
2019-01-06T11:45:29.122Z,17.63
2019-01-06T11:48:14.883Z,17.70
2019-01-06T11:51:00.029Z,18.13
2019-01-06T11:53:33.335Z,18.00
2019-01-06T11:56:03.561Z,19.37
2019-01-06T11:58:50.157Z,19.30
2019-01-06T12:01:20.387Z,21.17
2019-01-06T12:04:06.900Z,20.30
2019-01-06T12:06:45.790Z,20.03
2019-01-06T12:09:21.736Z,22.20
2019-01-06T12:12:10.350Z,21.77
2019-01-06T12:14:43.324Z,20.17
2019-01-06T12:17:19.282Z,21.00
2019-01-06T12:19:49.823Z,20.40
2019-01-06T12:22:36.438Z,19.03
2019-01-06T12:25:07.810Z,19.97
2019-01-06T12:27:38.056Z,19.30
2019-01-06T12:30:25.583Z,20.00
2019-01-06T12:32:55.815Z,18.03
2019-01-06T12:35:44.749Z,17.73
2019-01-06T12:38:17.586Z,19.47
2019-01-06T12:41:03.992Z,16.17
2019-01-06T12:43:56.428Z,17.87
2019-01-06T12:46:42.590Z,16.67
2019-01-06T12:49:12.817Z,16.03
2019-01-06T12:51:43.758Z,17.43
2019-01-06T12:54:32.652Z,15.23
2019-01-06T12:57:17.715Z,17.10
2019-01-06T13:00:04.085Z,14.03
2019-01-06T13:02:40.073Z,14.70
2019-01-06T13:05:27.875Z,16.90
2019-01-06T13:08:03.897Z,14.87
2019-01-06T13:10:50.249Z,16.13
2019-01-06T13:13:23.804Z,15.83
2019-01-06T13:16:03.044Z,15.40
2019-01-06T13:18:36.280Z,15.63
2019-01-06T13:21:21.835Z,15.17
2019-01-06T13:23:58.145Z,16.43
2019-01-06T13:26:33.220Z,16.53
2019-01-06T13:29:06.258Z,15.50
2019-01-06T13:31:42.388Z,14.33
2019-01-06T13:34:29.358Z,17.13
2019-01-06T13:37:08.523Z,16.10
2019-01-06T13:39:44.973Z,14.10
2019-01-06T13:42:21.443Z,15.00
2019-01-06T13:44:55.640Z,14.27
2019-01-06T13:47:45.129Z,15.13
2019-01-06T13:50:32.073Z,13.20
2019-01-06T13:53:05.349Z,14.57
2019-01-06T13:55:35.643Z,14.70
2019-01-06T13:58:05.841Z,15.87
2019-01-06T14:00:44.969Z,14.93
2019-01-06T14:03:15.203Z,12.83
2019-01-06T14:05:54.263Z,13.60
2019-01-06T14:08:24.491Z,18.90
2019-01-06T14:11:00.681Z,15.90
2019-01-06T14:13:30.933Z,14.00
2019-01-06T14:16:15.216Z,14.63
2019-01-06T14:19:01.795Z,13.27
2019-01-06T14:21:47.030Z,13.57
2019-01-06T14:24:33.482Z,13.13
2019-01-06T14:27:12.936Z,13.40
2019-01-06T14:29:49.134Z,12.77
2019-01-06T14:32:22.081Z,11.63
2019-01-06T14:35:08.554Z,12.47
2019-01-06T14:37:54.068Z,12.10
2019-01-06T14:40:24.269Z,12.30
2019-01-06T14:43:10.884Z,11.57
2019-01-06T14:45:41.130Z,11.97
2019-01-06T14:48:17.321Z,13.13
2019-01-06T14:50:47.545Z,10.50
2019-01-06T14:53:33.915Z,12.63
2019-01-06T14:56:06.620Z,12.70
2019-01-06T14:58:42.765Z,11.77
2019-01-06T15:01:28.217Z,12.83
2019-01-06T15:04:07.578Z,12.30
2019-01-06T15:06:40.961Z,12.47
2019-01-06T15:09:11.214Z,13.53
2019-01-06T15:11:57.666Z,12.40
2019-01-06T15:14:36.810Z,14.53
2019-01-06T15:17:13.110Z,12.10
2019-01-06T15:20:00.035Z,11.40
2019-01-06T15:22:47.447Z,11.47
2019-01-06T15:25:33.824Z,17.00
2019-01-06T15:28:04.081Z,13.37
2019-01-06T15:30:37.243Z,13.17
2019-01-06T15:33:23.688Z,12.20
2019-01-06T15:35:59.399Z,13.50
2019-01-06T15:38:34.102Z,12.40
2019-01-06T15:41:13.372Z,11.87
2019-01-06T15:43:43.604Z,12.43
2019-01-06T15:46:22.710Z,12.00
2019-01-06T15:49:09.949Z,12.40
2019-01-06T15:51:46.093Z,11.90
2019-01-06T15:54:22.355Z,12.73
2019-01-06T15:57:11.143Z,12.30
2019-01-06T15:59:57.833Z,12.10
2019-01-06T16:02:30.762Z,12.33
2019-01-06T16:05:06.721Z,11.77
2019-01-06T16:07:51.936Z,11.43
2019-01-06T16:10:38.544Z,10.50
2019-01-06T16:13:11.557Z,12.57
2019-01-06T16:15:44.473Z,11.83
2019-01-06T16:18:26.425Z,11.47
2019-01-06T16:20:56.692Z,13.60
2019-01-06T16:23:29.936Z,11.30
2019-01-06T16:26:00.173Z,16.82
2019-01-06T16:28:48.435Z,14.07
2019-01-06T16:31:27.745Z,13.00
2019-01-06T16:33:58.019Z,11.60
2019-01-06T16:36:28.270Z,11.90
2019-01-06T16:38:58.490Z,12.47
2019-01-06T16:41:43.868Z,12.53
2019-01-06T16:44:31.633Z,12.83
2019-01-06T16:47:01.971Z,12.63
2019-01-06T16:49:50.048Z,12.30
2019-01-06T16:52:35.548Z,12.87
2019-01-06T16:55:05.825Z,12.30
2019-01-06T16:57:36.048Z,10.80
2019-01-06T17:00:09.573Z,12.13
2019-01-06T17:02:45.757Z,12.43
2019-01-06T17:05:24.645Z,11.70
2019-01-06T17:08:10.214Z,11.80
2019-01-06T17:10:49.520Z,11.83
2019-01-06T17:13:22.755Z,10.97
2019-01-06T17:15:58.996Z,11.13
2019-01-06T17:18:29.441Z,16.10
2019-01-06T17:21:02.483Z,12.67
2019-01-06T17:23:48.861Z,12.27
2019-01-06T17:26:27.827Z,9.90
2019-01-06T17:29:00.889Z,10.90
2019-01-06T17:31:46.380Z,10.17
2019-01-06T17:34:22.368Z,11.80
2019-01-06T17:37:08.676Z,10.90
2019-01-06T17:39:56.856Z,9.90
2019-01-06T17:42:27.820Z,11.37
2019-01-06T17:45:14.464Z,9.60
2019-01-06T17:47:56.630Z,10.83
2019-01-06T17:50:29.641Z,10.03
2019-01-06T17:53:05.870Z,10.47
2019-01-06T17:55:41.727Z,10.53
2019-01-06T17:58:28.221Z,10.40
2019-01-06T18:01:01.256Z,9.83
2019-01-06T18:03:37.195Z,10.97
2019-01-06T18:06:13.173Z,10.00
2019-01-06T18:08:58.358Z,9.40
2019-01-06T18:11:31.541Z,9.80
2019-01-06T18:14:17.609Z,9.87
2019-01-06T18:16:50.676Z,9.60
2019-01-06T18:19:20.955Z,10.30
2019-01-06T18:22:00.483Z,10.57
2019-01-06T18:24:37.587Z,9.13
2019-01-06T18:27:26.173Z,10.10
2019-01-06T18:30:11.290Z,10.13
2019-01-06T18:32:44.353Z,8.77
2019-01-06T18:35:23.181Z,9.07
2019-01-06T18:37:59.421Z,9.33
2019-01-06T18:40:32.342Z,9.40
2019-01-06T18:43:06.913Z,9.70
2019-01-06T18:45:37.185Z,10.13
2019-01-06T18:48:07.445Z,10.10
2019-01-06T18:50:43.583Z,10.03
2019-01-06T18:53:32.134Z,9.37
2019-01-06T18:56:02.528Z,9.37
2019-01-06T18:58:41.748Z,9.70
2019-01-06T19:01:37.006Z,9.13
2019-01-06T19:04:26.771Z,9.87
2019-01-06T19:07:13.553Z,9.50
2019-01-06T19:09:59.773Z,9.23
2019-01-06T19:12:30.056Z,9.50
2019-01-06T19:15:16.574Z,9.43
2019-01-06T19:18:01.801Z,9.70
2019-01-06T19:20:32.029Z,9.70
2019-01-06T19:23:05.166Z,9.90
2019-01-06T19:25:42.039Z,9.97
2019-01-06T19:28:28.679Z,9.27
2019-01-06T19:31:07.871Z,9.03
2019-01-06T19:33:46.809Z,9.47
2019-01-06T19:36:31.986Z,9.77
2019-01-06T19:39:08.123Z,9.27
2019-01-06T19:41:46.971Z,9.83
2019-01-06T19:44:17.227Z,9.53
2019-01-06T19:46:53.437Z,10.17
2019-01-06T19:49:37.920Z,9.63
2019-01-06T19:52:12.979Z,10.67
2019-01-06T19:55:01.248Z,9.40
2019-01-06T19:57:47.094Z,11.37
2019-01-06T20:00:18.157Z,10.27
2019-01-06T20:03:04.868Z,10.17
2019-01-06T20:05:35.164Z,9.03
2019-01-06T20:08:22.006Z,9.13
2019-01-06T20:10:54.761Z,9.57
2019-01-06T20:13:40.836Z,8.27
2019-01-06T20:16:29.642Z,9.67
2019-01-06T20:19:07.765Z,9.20
2019-01-06T20:21:40.769Z,9.70
2019-01-06T20:24:29.145Z,9.70
2019-01-06T20:27:18.918Z,9.73
2019-01-06T20:29:49.455Z,9.37
2019-01-06T20:32:25.856Z,10.03
2019-01-06T20:38:09.624Z,10.57
2019-01-06T20:40:56.544Z,9.77
2019-01-06T20:43:32.663Z,10.77
2019-01-06T20:46:20.792Z,10.23
2019-01-06T20:49:07.477Z,10.17
2019-01-06T20:51:40.564Z,9.47
2019-01-06T20:54:13.754Z,9.10
2019-01-06T20:57:00.516Z,9.67
2019-01-06T20:59:46.977Z,11.37
2019-01-06T21:02:37.870Z,12.17
2019-01-06T21:05:24.262Z,11.23
2019-01-06T21:08:09.743Z,9.67
2019-01-06T21:10:56.186Z,12.27
2019-01-06T21:13:38.400Z,10.47
2019-01-06T21:16:20.538Z,11.10
2019-01-06T21:18:50.746Z,10.27
2019-01-06T21:21:30.057Z,11.73
2019-01-06T21:24:03.047Z,10.77
2019-01-06T21:26:51.992Z,10.93
2019-01-06T21:29:38.789Z,11.57
2019-01-06T21:32:20.751Z,11.03
2019-01-06T21:35:08.916Z,11.17
2019-01-06T21:37:39.119Z,11.67
2019-01-06T21:40:15.217Z,11.87
2019-01-06T21:43:01.845Z,10.30
2019-01-06T21:45:37.988Z,16.45
2019-01-06T21:48:26.788Z,13.30
2019-01-06T21:51:14.998Z,10.63
2019-01-06T21:53:51.158Z,10.73
2019-01-06T21:56:27.182Z,11.13
2019-01-06T21:59:03.371Z,10.93
2019-01-06T22:01:49.555Z,11.47
2019-01-06T22:04:36.710Z,10.10
2019-01-06T22:07:09.691Z,9.43
2019-01-06T22:09:52.174Z,10.90
2019-01-06T22:12:40.932Z,10.63
2019-01-06T22:15:19.896Z,10.17
2019-01-06T22:18:05.314Z,10.30
2019-01-06T22:20:52.002Z,11.17
2019-01-06T22:23:33.881Z,8.13
2019-01-06T22:26:22.407Z,9.97
2019-01-06T22:29:04.884Z,9.77
2019-01-06T22:31:41.234Z,10.40
2019-01-06T22:34:14.222Z,10.97
2019-01-06T22:37:00.609Z,11.53
2019-01-06T22:39:36.692Z,9.93
2019-01-06T22:42:06.938Z,9.30
2019-01-06T22:44:37.242Z,10.23
2019-01-06T22:47:07.462Z,8.47
2019-01-06T22:49:43.817Z,9.70
2019-01-06T22:52:16.526Z,9.20
2019-01-06T22:55:03.130Z,10.60
2019-01-06T22:57:33.450Z,10.20
2019-01-06T23:00:03.694Z,9.87
2019-01-06T23:02:33.946Z,8.37
2019-01-06T23:05:06.674Z,10.23
2019-01-06T23:07:48.788Z,10.27
2019-01-06T23:10:36.996Z,9.83
2019-01-06T23:13:23.480Z,8.83
2019-01-06T23:15:57.441Z,10.30
2019-01-06T23:18:37.008Z,9.30
2019-01-06T23:21:16.380Z,9.30
2019-01-06T23:23:58.482Z,9.87
2019-01-06T23:26:32.993Z,8.73
2019-01-06T23:29:19.604Z,8.30
2019-01-06T23:31:55.646Z,9.60
2019-01-06T23:34:25.880Z,9.57
2019-01-06T23:37:05.245Z,8.97
2019-01-06T23:39:51.808Z,9.63
2019-01-06T23:42:32.102Z,9.13
2019-01-06T23:45:18.581Z,9.60
2019-01-06T23:48:06.642Z,9.80
2019-01-06T23:50:36.886Z,9.37
2019-01-06T23:53:11.712Z,8.63
2019-01-06T23:55:58.122Z,6.97
2019-01-06T23:58:34.113Z,8.90
